createdAt,value
2018-07-27T03:03:13.400Z,39.36
2018-07-27T03:04:13.419Z,38.57
2018-07-27T03:06:06.973Z,38.28
2018-07-27T03:07:06.991Z,38.38
2018-07-27T03:09:00.468Z,38.18
2018-07-27T03:10:00.480Z,38.09
2018-07-27T03:11:53.502Z,38.17
2018-07-27T03:12:53.525Z,37.87
2018-07-27T03:14:47.066Z,37.68
2018-07-27T03:15:47.093Z,37.68
2018-07-27T03:17:40.643Z,37.48
2018-07-27T03:18:40.665Z,37.87
2018-07-27T03:20:33.712Z,37.58
2018-07-27T03:21:33.726Z,37.68
2018-07-27T03:23:27.279Z,37.77
2018-07-27T03:24:27.296Z,37.87
2018-07-27T03:26:20.901Z,37.87
2018-07-27T03:27:20.871Z,38.07
2018-07-27T03:29:14.415Z,38.46
2018-07-27T03:30:14.439Z,38.75
2018-07-27T03:32:07.914Z,38.26
2018-07-27T03:33:07.932Z,38.07
2018-07-27T03:35:01.456Z,38.07
2018-07-27T03:36:01.477Z,37.99
2018-07-27T03:37:55.032Z,38.67
2018-07-27T03:38:55.053Z,38.48
2018-07-27T03:40:48.521Z,38.77
2018-07-27T03:41:48.544Z,38.77
2018-07-27T03:43:42.119Z,39.45
2018-07-27T03:44:42.086Z,39.16
2018-07-27T03:46:35.640Z,38.18
2018-07-27T03:47:35.657Z,38.48
2018-07-27T03:49:29.221Z,38.59
2018-07-27T03:50:29.227Z,38.49
2018-07-27T03:52:22.781Z,38.49
2018-07-27T03:53:22.798Z,38.49
2018-07-27T03:55:16.331Z,38.59
2018-07-27T03:56:16.310Z,38.69
2018-07-27T03:58:09.784Z,38.69
2018-07-27T03:59:09.810Z,38.30
2018-07-27T04:01:03.316Z,38.40
2018-07-27T04:02:03.317Z,38.59
2018-07-27T04:03:56.788Z,38.79
2018-07-27T04:04:56.810Z,38.79
2018-07-27T04:06:50.304Z,39.00
2018-07-27T04:07:50.317Z,38.90
2018-07-27T04:09:43.790Z,38.81
2018-07-27T04:10:43.813Z,38.71
2018-07-27T04:12:37.295Z,39.00
2018-07-27T04:13:37.323Z,39.10
2018-07-27T04:15:30.847Z,39.20
2018-07-27T04:16:30.835Z,39.00
2018-07-27T04:18:24.325Z,39.20
2018-07-27T04:19:24.368Z,39.10
2018-07-27T04:21:17.823Z,39.00
2018-07-27T04:22:17.856Z,39.20
2018-07-27T04:24:11.324Z,38.92
2018-07-27T04:25:11.356Z,39.10
2018-07-27T04:27:04.819Z,38.90
2018-07-27T04:28:04.842Z,39.02
2018-07-27T04:29:58.325Z,39.02
2018-07-27T04:30:58.370Z,39.51
2018-07-27T04:32:51.831Z,39.51
2018-07-27T04:33:51.857Z,39.51
2018-07-27T04:35:45.395Z,39.41
2018-07-27T04:36:45.353Z,39.61
2018-07-27T04:38:38.837Z,39.61
2018-07-27T04:39:38.863Z,39.51
2018-07-27T04:41:32.351Z,39.51
2018-07-27T04:42:32.370Z,39.41
2018-07-27T04:44:25.852Z,39.61
2018-07-27T04:45:25.878Z,40.00
2018-07-27T04:47:19.363Z,39.41
2018-07-27T04:48:19.386Z,39.80
2018-07-27T04:50:12.869Z,40.00
2018-07-27T04:51:12.894Z,40.09
2018-07-27T04:53:06.379Z,40.19
2018-07-27T04:54:06.401Z,39.41
2018-07-27T04:55:59.886Z,40.00
2018-07-27T04:56:59.910Z,40.09
2018-07-27T04:58:53.445Z,40.19
2018-07-27T04:59:53.417Z,40.29
2018-07-27T05:01:46.890Z,39.90
2018-07-27T05:02:46.915Z,40.19
2018-07-27T05:04:40.441Z,40.48
2018-07-27T05:05:40.422Z,40.29
2018-07-27T05:07:33.907Z,40.09
2018-07-27T05:08:33.931Z,40.19
2018-07-27T05:10:27.433Z,40.48
2018-07-27T05:11:27.439Z,39.90
2018-07-27T05:13:20.915Z,40.68
2018-07-27T05:14:20.937Z,40.09
2018-07-27T05:16:14.441Z,40.48
2018-07-27T05:17:14.499Z,40.68
2018-07-27T05:19:07.920Z,40.19
2018-07-27T05:20:07.943Z,40.09
2018-07-27T05:22:01.427Z,40.58
2018-07-27T05:23:01.451Z,40.58
2018-07-27T05:24:54.916Z,40.58
2018-07-27T05:25:54.950Z,40.29
2018-07-27T05:27:48.455Z,40.00
2018-07-27T05:28:48.462Z,40.19
2018-07-27T05:30:41.941Z,40.21
2018-07-27T05:31:41.965Z,39.92
2018-07-27T05:33:35.456Z,40.11
2018-07-27T05:34:35.493Z,40.01
2018-07-27T05:36:28.970Z,40.11
2018-07-27T05:37:28.976Z,40.50
2018-07-27T05:39:22.459Z,40.50
2018-07-27T05:40:22.483Z,40.21
2018-07-27T05:42:16.013Z,40.41
2018-07-27T05:43:15.989Z,40.41
2018-07-27T05:45:09.478Z,40.41
2018-07-27T05:46:09.500Z,40.60
2018-07-27T05:48:02.995Z,40.50
2018-07-27T05:49:03.007Z,40.50
2018-07-27T05:50:56.498Z,40.60
2018-07-27T05:51:56.515Z,40.80
2018-07-27T05:53:50.000Z,40.89
2018-07-27T05:54:50.025Z,40.80
2018-07-27T05:56:43.513Z,40.70
2018-07-27T05:57:43.534Z,40.89
2018-07-27T05:59:37.017Z,40.70
2018-07-27T06:00:37.045Z,40.80
2018-07-27T06:02:30.531Z,40.92
2018-07-27T06:03:30.551Z,40.89
2018-07-27T06:05:24.044Z,40.63
2018-07-27T06:06:24.077Z,40.80
2018-07-27T06:08:17.550Z,40.80
2018-07-27T06:09:17.572Z,40.82
2018-07-27T06:11:11.070Z,40.82
2018-07-27T06:12:11.083Z,40.70
2018-07-27T06:14:04.563Z,40.80
2018-07-27T06:15:04.587Z,40.82
2018-07-27T06:16:58.069Z,40.92
2018-07-27T06:17:58.115Z,41.09
2018-07-27T06:19:51.589Z,41.11
2018-07-27T06:20:51.608Z,40.72
2018-07-27T06:22:45.089Z,41.02
2018-07-27T06:23:45.173Z,40.92
2018-07-27T06:25:38.651Z,41.02
2018-07-27T06:26:38.623Z,41.21
2018-07-27T06:28:32.111Z,41.21
2018-07-27T06:29:32.122Z,41.21
2018-07-27T06:31:25.596Z,41.41
2018-07-27T06:32:25.620Z,41.31
2018-07-27T06:34:19.104Z,41.11
2018-07-27T06:35:19.130Z,41.21
2018-07-27T06:37:12.608Z,41.21
2018-07-27T06:38:12.630Z,41.31
2018-07-27T06:40:06.122Z,41.11
2018-07-27T06:41:06.149Z,41.21
2018-07-27T06:42:59.635Z,41.11
2018-07-27T06:43:59.658Z,41.11
2018-07-27T06:45:53.141Z,41.11
2018-07-27T06:46:53.165Z,41.11
2018-07-27T06:48:46.650Z,40.92
2018-07-27T06:49:46.677Z,41.02
2018-07-27T06:51:40.160Z,41.02
2018-07-27T06:52:40.187Z,40.92
2018-07-27T06:54:33.675Z,40.92
2018-07-27T06:55:33.695Z,41.02
2018-07-27T06:57:27.166Z,41.02
2018-07-27T06:58:27.193Z,41.02
2018-07-27T07:00:20.673Z,41.02
2018-07-27T07:01:20.691Z,41.11
2018-07-27T07:03:14.177Z,40.92
2018-07-27T07:04:14.201Z,41.02
2018-07-27T07:06:07.685Z,41.02
2018-07-27T07:07:07.710Z,41.50
2018-07-27T07:09:01.198Z,41.60
2018-07-27T07:10:01.221Z,41.60
2018-07-27T07:11:54.716Z,41.41
2018-07-27T07:12:54.732Z,41.31
2018-07-27T07:14:48.211Z,41.31
2018-07-27T07:15:48.238Z,41.41
2018-07-27T07:17:41.730Z,41.41
2018-07-27T07:18:41.748Z,41.31
2018-07-27T07:20:34.739Z,41.21
2018-07-27T07:21:34.761Z,41.31
2018-07-27T07:23:28.245Z,41.50
2018-07-27T07:24:28.271Z,41.41
2018-07-27T07:26:21.760Z,41.41
2018-07-27T07:27:21.784Z,41.31
2018-07-27T07:29:15.260Z,41.60
2018-07-27T07:30:15.281Z,41.50
2018-07-27T07:32:08.772Z,41.21
2018-07-27T07:33:08.802Z,41.31
2018-07-27T07:35:02.292Z,41.41
2018-07-27T07:36:02.299Z,41.11
2018-07-27T07:37:55.783Z,41.60
2018-07-27T07:38:55.807Z,41.70
2018-07-27T07:40:49.292Z,40.94
2018-07-27T07:41:49.319Z,41.21
2018-07-27T07:43:42.822Z,41.60
2018-07-27T07:44:42.825Z,41.70
2018-07-27T07:46:36.316Z,41.50
2018-07-27T07:47:36.336Z,41.33
2018-07-27T07:49:29.915Z,41.91
2018-07-27T07:50:29.847Z,41.72
2018-07-27T07:52:23.333Z,41.42
2018-07-27T07:53:23.355Z,41.33
2018-07-27T07:55:16.832Z,41.31
2018-07-27T07:56:16.854Z,41.82
2018-07-27T07:58:10.338Z,41.72
2018-07-27T07:59:10.374Z,41.62
2018-07-27T08:01:03.848Z,41.31
2018-07-27T08:02:03.874Z,41.41
2018-07-27T08:03:57.368Z,41.52
2018-07-27T08:04:57.386Z,41.52
2018-07-27T08:06:50.857Z,41.52
2018-07-27T08:07:50.883Z,41.41
2018-07-27T08:09:44.371Z,41.62
2018-07-27T08:10:44.393Z,41.82
2018-07-27T08:12:37.906Z,41.72
2018-07-27T08:13:37.914Z,41.70
2018-07-27T08:15:31.386Z,42.38
2018-07-27T08:16:31.411Z,41.72
2018-07-27T08:18:24.885Z,41.72
2018-07-27T08:19:24.909Z,41.70
2018-07-27T08:21:18.401Z,41.62
2018-07-27T08:22:18.423Z,41.62
2018-07-27T08:24:11.904Z,41.72
2018-07-27T08:25:11.934Z,41.72
2018-07-27T08:27:05.419Z,41.50
2018-07-27T08:28:05.438Z,41.52
2018-07-27T08:29:58.923Z,41.72
2018-07-27T08:30:58.948Z,41.60
2018-07-27T08:32:52.435Z,42.01
2018-07-27T08:33:52.456Z,41.70
2018-07-27T08:35:45.452Z,41.72
2018-07-27T08:36:45.472Z,42.01
2018-07-27T08:38:38.961Z,41.72
2018-07-27T08:39:38.991Z,42.09
2018-07-27T08:41:31.974Z,41.82
2018-07-27T08:42:31.998Z,42.11
2018-07-27T08:44:25.484Z,42.09
2018-07-27T08:45:25.506Z,42.01
2018-07-27T08:47:19.006Z,41.91
2018-07-27T08:48:19.008Z,41.99
2018-07-27T08:50:12.497Z,42.11
2018-07-27T08:51:12.519Z,42.19
2018-07-27T08:53:05.509Z,42.21
2018-07-27T08:54:05.532Z,42.50
2018-07-27T08:55:59.015Z,42.60
2018-07-27T08:56:59.049Z,42.58
2018-07-27T08:58:52.515Z,42.50
2018-07-27T08:59:52.540Z,42.40
2018-07-27T09:01:46.031Z,42.40
2018-07-27T09:02:46.053Z,42.48
2018-07-27T09:04:39.536Z,42.60
2018-07-27T09:05:39.562Z,42.60
2018-07-27T09:07:33.050Z,42.69
2018-07-27T09:08:33.072Z,42.30
2018-07-27T09:10:26.545Z,42.40
2018-07-27T09:11:26.570Z,42.48
2018-07-27T09:13:20.045Z,42.40
2018-07-27T09:14:20.068Z,42.21
2018-07-27T09:16:13.553Z,42.50
2018-07-27T09:17:13.586Z,42.40
2018-07-27T09:19:07.067Z,42.38
2018-07-27T09:20:07.087Z,42.29
2018-07-27T09:22:00.573Z,42.40
2018-07-27T09:23:00.596Z,42.40
2018-07-27T09:24:54.184Z,42.40
2018-07-27T09:25:54.105Z,42.40
2018-07-27T09:27:47.594Z,42.48
2018-07-27T09:28:47.616Z,42.50
2018-07-27T09:30:40.613Z,42.40
2018-07-27T09:31:40.636Z,42.40
2018-07-27T09:33:34.111Z,42.29
2018-07-27T09:34:34.134Z,42.48
2018-07-27T09:36:27.626Z,42.50
2018-07-27T09:37:27.647Z,42.50
2018-07-27T09:39:21.138Z,42.60
2018-07-27T09:40:21.158Z,42.50
2018-07-27T09:42:14.651Z,42.50
2018-07-27T09:43:14.667Z,42.60
2018-07-27T09:45:08.221Z,42.40
2018-07-27T09:46:08.216Z,42.30
2018-07-27T09:48:01.672Z,42.30
2018-07-27T09:49:01.687Z,42.40
2018-07-27T09:50:55.171Z,42.50
2018-07-27T09:51:55.194Z,42.40
2018-07-27T09:53:49.246Z,42.40
2018-07-27T09:54:48.706Z,42.50
2018-07-27T09:56:42.178Z,42.60
2018-07-27T09:57:42.207Z,42.69
2018-07-27T09:59:35.678Z,42.77
2018-07-27T10:00:35.704Z,42.60
2018-07-27T10:02:29.183Z,42.69
2018-07-27T10:03:29.204Z,42.69
2018-07-27T10:05:22.692Z,42.79
2018-07-27T10:06:22.712Z,42.69
2018-07-27T10:08:16.197Z,42.69
2018-07-27T10:09:16.223Z,42.50
2018-07-27T10:11:09.713Z,42.69
2018-07-27T10:12:09.739Z,42.69
2018-07-27T10:14:03.210Z,42.50
2018-07-27T10:15:03.232Z,42.69
2018-07-27T10:16:56.706Z,42.69
2018-07-27T10:17:56.731Z,42.69
2018-07-27T10:19:50.224Z,42.79
2018-07-27T10:20:50.239Z,42.58
2018-07-27T10:22:43.730Z,42.79
2018-07-27T10:23:43.751Z,42.79
2018-07-27T10:25:37.233Z,42.60
2018-07-27T10:26:37.262Z,42.69
2018-07-27T10:28:30.257Z,42.79
2018-07-27T10:29:30.275Z,42.79
2018-07-27T10:31:23.790Z,42.79
2018-07-27T10:32:23.787Z,42.69
2018-07-27T10:34:17.268Z,42.89
2018-07-27T10:35:17.294Z,42.79
2018-07-27T10:37:10.781Z,42.99
2018-07-27T10:38:10.805Z,42.79
2018-07-27T10:40:04.293Z,42.99
2018-07-27T10:41:04.313Z,42.69
2018-07-27T10:42:57.797Z,42.99
2018-07-27T10:43:57.826Z,42.79
2018-07-27T10:45:51.311Z,42.89
2018-07-27T10:46:51.332Z,42.89
2018-07-27T10:48:44.821Z,42.79
2018-07-27T10:49:44.841Z,42.69
2018-07-27T10:51:38.327Z,42.69
2018-07-27T10:52:38.351Z,43.08
2018-07-27T10:54:31.838Z,42.99
2018-07-27T10:55:31.861Z,42.69
2018-07-27T10:57:24.871Z,43.08
2018-07-27T10:58:24.883Z,42.89
2018-07-27T11:00:18.416Z,42.99
2018-07-27T11:01:18.400Z,42.89
2018-07-27T11:03:11.884Z,42.89
2018-07-27T11:04:11.903Z,43.08
2018-07-27T11:06:05.388Z,43.28
2018-07-27T11:07:05.413Z,43.18
2018-07-27T11:08:58.888Z,42.79
2018-07-27T11:09:58.913Z,43.08
2018-07-27T11:11:52.397Z,43.18
2018-07-27T11:12:52.428Z,43.08
2018-07-27T11:14:45.910Z,42.99
2018-07-27T11:15:45.939Z,43.08
2018-07-27T11:17:39.486Z,43.18
2018-07-27T11:18:39.445Z,43.28
2018-07-27T11:20:32.936Z,43.28
2018-07-27T11:21:32.948Z,43.28
2018-07-27T11:23:26.432Z,43.08
2018-07-27T11:24:26.457Z,43.08
2018-07-27T11:26:19.943Z,43.28
2018-07-27T11:27:19.968Z,43.18
2018-07-27T11:29:12.964Z,43.38
2018-07-27T11:30:12.990Z,42.89
2018-07-27T11:32:06.556Z,43.08
2018-07-27T11:33:06.575Z,43.18
2018-07-27T11:35:00.064Z,43.18
2018-07-27T11:36:00.091Z,43.28
2018-07-27T11:37:53.581Z,43.28
2018-07-27T11:38:53.601Z,43.18
2018-07-27T11:40:47.097Z,43.08
2018-07-27T11:41:47.121Z,43.18
2018-07-27T11:43:40.611Z,43.18
2018-07-27T11:44:40.635Z,43.28
2018-07-27T11:46:34.122Z,43.18
2018-07-27T11:47:34.146Z,43.18
2018-07-27T11:49:27.658Z,43.28
2018-07-27T11:50:27.660Z,43.28
2018-07-27T11:52:21.167Z,43.08
2018-07-27T11:53:21.170Z,43.18
2018-07-27T11:55:14.662Z,43.18
2018-07-27T11:56:14.681Z,43.08
2018-07-27T11:58:08.173Z,43.28
2018-07-27T11:59:08.195Z,43.18
2018-07-27T12:01:01.682Z,43.28
2018-07-27T12:02:01.704Z,43.18
2018-07-27T12:03:55.199Z,43.28
2018-07-27T12:04:55.218Z,43.28
2018-07-27T12:06:48.710Z,43.18
2018-07-27T12:07:48.737Z,43.18
2018-07-27T12:09:42.216Z,42.99
2018-07-27T12:10:42.242Z,43.28
2018-07-27T12:12:35.249Z,43.08
2018-07-27T12:13:35.262Z,43.28
2018-07-27T12:15:28.756Z,43.28
2018-07-27T12:16:28.776Z,43.28
2018-07-27T12:18:22.253Z,43.18
2018-07-27T12:19:22.276Z,43.38
2018-07-27T12:21:15.958Z,43.18
2018-07-27T12:22:15.792Z,43.28
2018-07-27T12:24:09.285Z,43.20
2018-07-27T12:25:09.303Z,43.08
2018-07-27T12:27:02.804Z,43.28
2018-07-27T12:28:02.815Z,42.99
2018-07-27T12:29:56.297Z,43.38
2018-07-27T12:30:56.317Z,43.18
2018-07-27T12:32:49.795Z,43.28
2018-07-27T12:33:49.823Z,43.10
2018-07-27T12:35:43.308Z,43.28
2018-07-27T12:36:43.333Z,43.18
2018-07-27T12:38:36.821Z,43.30
2018-07-27T12:39:36.846Z,43.30
2018-07-27T12:41:30.339Z,43.30
2018-07-27T12:42:30.360Z,43.08
2018-07-27T12:44:23.844Z,43.20
2018-07-27T12:45:23.874Z,43.08
2018-07-27T12:47:17.360Z,43.20
2018-07-27T12:48:17.381Z,43.10
2018-07-27T12:50:10.869Z,43.08
2018-07-27T12:51:10.899Z,43.30
2018-07-27T12:53:04.382Z,43.10
2018-07-27T12:54:04.406Z,43.18
2018-07-27T12:55:57.898Z,43.30
2018-07-27T12:56:57.920Z,43.30
2018-07-27T12:58:51.411Z,43.20
2018-07-27T12:59:51.432Z,43.28
2018-07-27T13:01:44.919Z,42.99
2018-07-27T13:02:44.943Z,43.18
2018-07-27T13:04:38.434Z,43.18
2018-07-27T13:05:38.456Z,43.30
2018-07-27T13:07:31.451Z,42.91
2018-07-27T13:08:31.481Z,43.40
2018-07-27T13:10:24.962Z,43.01
2018-07-27T13:11:24.988Z,43.18
2018-07-27T13:13:18.477Z,43.28
2018-07-27T13:14:18.490Z,43.20
2018-07-27T13:16:11.978Z,43.20
2018-07-27T13:17:12.004Z,43.30
2018-07-27T13:19:05.589Z,43.40
2018-07-27T13:20:05.604Z,43.30
2018-07-27T13:21:59.163Z,43.08
2018-07-27T13:22:59.173Z,42.99
2018-07-27T13:27:46.290Z,43.30
2018-07-27T13:28:46.313Z,43.40
2018-07-27T13:30:39.800Z,43.40
2018-07-27T13:31:39.866Z,43.30
2018-07-27T13:33:33.333Z,43.01
2018-07-27T13:34:33.355Z,42.91
2018-07-27T13:36:26.899Z,43.10
2018-07-27T13:37:26.889Z,43.10
2018-07-27T13:39:20.370Z,43.10
2018-07-27T13:40:20.390Z,42.91
2018-07-27T13:42:13.937Z,42.81
2018-07-27T13:43:13.962Z,43.18
2018-07-27T13:45:07.507Z,42.71
2018-07-27T13:46:07.531Z,43.20
2018-07-27T13:48:01.050Z,43.10
2018-07-27T13:49:01.077Z,43.10
2018-07-27T13:50:54.654Z,42.91
2018-07-27T13:51:54.673Z,42.91
2018-07-27T13:53:47.706Z,43.10
2018-07-27T13:54:47.730Z,43.30
2018-07-27T13:56:41.336Z,43.10
2018-07-27T13:57:41.356Z,43.49
2018-07-27T13:59:46.475Z,43.49
2018-07-27T14:00:46.499Z,43.49
2018-07-27T14:02:39.579Z,42.91
2018-07-27T14:03:39.605Z,43.20
2018-07-27T14:05:33.149Z,43.49
2018-07-27T14:06:33.175Z,43.30
2018-07-27T14:08:26.727Z,43.30
2018-07-27T14:09:26.744Z,43.59
2018-07-27T14:11:20.291Z,43.79
2018-07-27T14:12:20.314Z,43.79
2018-07-27T14:14:13.882Z,43.49
2018-07-27T14:15:13.886Z,43.69
2018-07-27T14:17:07.432Z,42.91
2018-07-27T14:18:07.473Z,43.10
2018-07-27T14:20:01.019Z,43.10
2018-07-27T14:21:01.027Z,43.20
2018-07-27T14:22:54.570Z,43.20
2018-07-27T14:23:54.595Z,43.30
2018-07-27T14:25:48.159Z,43.30
2018-07-27T14:26:48.168Z,42.91
2018-07-27T14:28:41.712Z,42.91
2018-07-27T14:29:41.741Z,43.59
2018-07-27T14:31:35.234Z,43.40
2018-07-27T14:32:35.251Z,43.30
2018-07-27T14:34:28.751Z,43.30
2018-07-27T14:35:28.774Z,43.49
2018-07-27T14:37:22.321Z,43.40
2018-07-27T14:38:22.347Z,43.69
2018-07-27T14:40:15.893Z,43.10
2018-07-27T14:41:15.919Z,43.10
2018-07-27T14:43:09.468Z,42.81
2018-07-27T14:44:09.485Z,43.40
2018-07-27T14:46:03.035Z,43.79
2018-07-27T14:47:03.075Z,43.59
2018-07-27T14:48:56.607Z,43.69
2018-07-27T14:49:56.625Z,43.30
2018-07-27T14:51:50.173Z,43.59
2018-07-27T14:52:50.219Z,43.79
2018-07-27T14:54:43.744Z,43.40
2018-07-27T14:55:43.770Z,43.69
2018-07-27T14:57:37.315Z,43.59
2018-07-27T14:58:37.375Z,43.79
2018-07-27T15:00:30.892Z,43.79
2018-07-27T15:01:30.910Z,43.79
2018-07-27T15:03:24.455Z,43.59
2018-07-27T15:04:24.478Z,43.79
2018-07-27T15:06:18.031Z,43.59
2018-07-27T15:07:18.121Z,43.59
2018-07-27T15:09:11.596Z,43.69
2018-07-27T15:10:11.626Z,43.59
2018-07-27T15:12:05.165Z,43.30
2018-07-27T15:13:05.192Z,43.59
2018-07-27T15:14:58.667Z,43.59
2018-07-27T15:15:58.693Z,43.59
2018-07-27T15:17:52.213Z,43.79
2018-07-27T15:18:52.229Z,43.69
2018-07-27T15:20:45.776Z,43.59
2018-07-27T15:21:45.807Z,43.49
2018-07-27T15:23:39.351Z,43.69
2018-07-27T15:24:39.369Z,43.59
2018-07-27T15:26:32.916Z,43.69
2018-07-27T15:27:32.950Z,43.69
2018-07-27T15:29:26.484Z,43.30
2018-07-27T15:30:26.513Z,43.69
2018-07-27T15:32:20.058Z,43.10
2018-07-27T15:33:20.080Z,43.40
2018-07-27T15:35:13.630Z,43.10
2018-07-27T15:36:13.660Z,43.40
2018-07-27T15:38:07.199Z,42.91
2018-07-27T15:39:07.222Z,43.30
2018-07-27T15:41:00.773Z,43.40
2018-07-27T15:42:00.791Z,43.30
2018-07-27T15:43:54.336Z,43.71
2018-07-27T15:44:54.362Z,43.59
2018-07-27T15:46:48.938Z,43.59
2018-07-27T15:47:48.956Z,43.52
2018-07-27T15:49:42.503Z,43.42
2018-07-27T15:50:42.526Z,43.69
2018-07-27T15:52:36.079Z,43.79
2018-07-27T15:53:36.096Z,43.81
2018-07-27T15:55:29.644Z,43.81
2018-07-27T15:56:29.668Z,43.52
2018-07-27T15:58:23.222Z,43.71
2018-07-27T15:59:23.238Z,43.59
2018-07-27T16:01:16.784Z,43.69
2018-07-27T16:02:16.809Z,43.71
2018-07-27T16:04:10.355Z,43.81
2018-07-27T16:05:10.378Z,43.81
2018-07-27T16:07:03.924Z,43.62
2018-07-27T16:08:03.949Z,43.91
2018-07-27T16:09:57.501Z,43.52
2018-07-27T16:10:57.518Z,43.69
2018-07-27T16:12:51.066Z,43.62
2018-07-27T16:13:51.100Z,43.69
2018-07-27T16:15:44.639Z,43.59
2018-07-27T16:16:44.660Z,43.52
2018-07-27T16:18:38.208Z,43.62
2018-07-27T16:19:38.231Z,43.91
2018-07-27T16:21:31.776Z,43.79
2018-07-27T16:22:31.802Z,43.59
2018-07-27T16:24:25.348Z,43.62
2018-07-27T16:25:25.373Z,43.91
2018-07-27T16:27:18.924Z,43.59
2018-07-27T16:28:18.947Z,43.81
2018-07-27T16:30:11.978Z,43.62
2018-07-27T16:31:12.000Z,43.62
2018-07-27T16:33:05.550Z,43.71
2018-07-27T16:34:05.571Z,43.71
2018-07-27T16:35:59.119Z,43.81
2018-07-27T16:36:59.142Z,43.52
2018-07-27T16:38:52.686Z,43.71
2018-07-27T16:39:52.712Z,43.52
2018-07-27T16:41:46.259Z,43.62
2018-07-27T16:42:46.283Z,43.62
2018-07-27T16:44:39.828Z,43.71
2018-07-27T16:45:39.853Z,43.71
2018-07-27T16:47:32.890Z,43.71
2018-07-27T16:48:32.911Z,43.71
2018-07-27T16:50:26.472Z,43.81
2018-07-27T16:51:26.480Z,43.81
2018-07-27T16:53:19.516Z,43.81
2018-07-27T16:54:19.540Z,43.62
2018-07-27T16:56:13.086Z,43.62
2018-07-27T16:57:13.111Z,43.62
2018-07-27T16:59:06.655Z,43.81
2018-07-27T17:00:06.685Z,43.71
2018-07-27T17:02:00.244Z,43.71
2018-07-27T17:03:00.250Z,43.62
2018-07-27T17:04:53.796Z,43.81
2018-07-27T17:05:53.824Z,43.52
2018-07-27T17:07:47.382Z,43.71
2018-07-27T17:08:47.392Z,43.71
2018-07-27T17:10:40.939Z,43.71
2018-07-27T17:11:40.961Z,43.71
2018-07-27T17:13:34.510Z,44.01
2018-07-27T17:14:34.532Z,43.71
2018-07-27T17:16:28.080Z,43.71
2018-07-27T17:17:28.102Z,43.71
2018-07-27T17:19:21.655Z,43.81
2018-07-27T17:20:21.675Z,43.81
2018-07-27T17:22:15.220Z,43.81
2018-07-27T17:23:15.245Z,43.71
2018-07-27T17:25:08.854Z,43.81
2018-07-27T17:26:08.815Z,43.71
2018-07-27T17:28:02.361Z,43.91
2018-07-27T17:29:02.387Z,43.91
2018-07-27T17:30:55.936Z,43.81
2018-07-27T17:31:55.956Z,43.91
2018-07-27T17:33:49.500Z,43.91
2018-07-27T17:34:49.525Z,43.91
2018-07-27T17:36:43.075Z,43.91
2018-07-27T17:37:43.096Z,43.71
2018-07-27T17:39:36.643Z,43.91
2018-07-27T17:40:36.668Z,43.71
2018-07-27T17:42:30.217Z,43.32
2018-07-27T17:43:30.238Z,43.32
2018-07-27T17:45:23.783Z,43.91
2018-07-27T17:46:23.842Z,43.91
2018-07-27T17:48:17.371Z,43.32
2018-07-27T17:49:17.377Z,43.62
2018-07-27T17:51:10.922Z,43.81
2018-07-27T17:52:10.948Z,43.52
2018-07-27T17:54:04.512Z,43.81
2018-07-27T17:55:04.518Z,43.52
2018-07-27T17:56:58.065Z,43.91
2018-07-27T17:57:58.090Z,43.42
2018-07-27T17:59:51.634Z,43.52
2018-07-27T18:00:51.657Z,43.52
2018-07-27T18:02:45.204Z,43.62
2018-07-27T18:03:45.227Z,43.62
2018-07-27T18:05:38.803Z,43.54
2018-07-27T18:06:38.799Z,43.52
2018-07-27T18:08:32.345Z,43.44
2018-07-27T18:09:32.373Z,43.81
2018-07-27T18:11:25.920Z,43.71
2018-07-27T18:12:25.935Z,43.81
2018-07-27T18:14:19.485Z,44.01
2018-07-27T18:15:19.511Z,43.81
2018-07-27T18:17:13.056Z,44.10
2018-07-27T18:18:13.082Z,44.10
2018-07-27T18:20:06.628Z,43.32
2018-07-27T18:21:06.650Z,43.32
2018-07-27T18:23:00.200Z,44.01
2018-07-27T18:24:00.229Z,44.01
2018-07-27T18:25:53.767Z,44.10
2018-07-27T18:26:53.791Z,44.01
2018-07-27T18:28:47.809Z,44.10
2018-07-27T18:29:47.361Z,44.01
2018-07-27T18:31:40.908Z,44.10
2018-07-27T18:32:40.933Z,43.91
2018-07-27T18:34:34.479Z,44.01
2018-07-27T18:35:34.504Z,44.20
2018-07-27T18:37:28.048Z,44.10
2018-07-27T18:38:28.074Z,44.10
2018-07-27T18:40:21.631Z,43.91
2018-07-27T18:41:21.643Z,43.91
2018-07-27T18:43:15.189Z,43.91
2018-07-27T18:44:15.215Z,44.10
2018-07-27T18:46:08.766Z,44.10
2018-07-27T18:47:08.786Z,44.10
2018-07-27T18:49:02.336Z,44.10
2018-07-27T18:50:02.365Z,44.10
2018-07-27T18:51:55.901Z,44.30
2018-07-27T18:52:55.925Z,44.01
2018-07-27T18:54:49.473Z,44.20
2018-07-27T18:55:49.497Z,44.10
2018-07-27T18:57:43.049Z,44.30
2018-07-27T18:58:43.071Z,44.20
2018-07-27T19:00:36.611Z,44.30
2018-07-27T19:01:36.667Z,44.13
2018-07-27T19:03:30.188Z,44.30
2018-07-27T19:04:30.205Z,44.30
2018-07-27T19:06:23.756Z,44.10
2018-07-27T19:07:23.797Z,44.30
2018-07-27T19:09:17.322Z,44.40
2018-07-27T19:10:17.346Z,44.30
2018-07-27T19:12:10.893Z,44.30
2018-07-27T19:13:10.919Z,44.20
2018-07-27T19:15:04.468Z,44.32
2018-07-27T19:16:04.491Z,44.20
2018-07-27T19:17:58.035Z,44.30
2018-07-27T19:18:58.059Z,44.10
2018-07-27T19:20:51.611Z,44.23
2018-07-27T19:21:51.629Z,44.20
2018-07-27T19:23:45.178Z,44.13
2018-07-27T19:24:45.200Z,44.20
2018-07-27T19:26:38.743Z,44.32
2018-07-27T19:27:38.783Z,44.30
2018-07-27T19:29:32.324Z,44.20
2018-07-27T19:30:32.339Z,44.23
2018-07-27T19:32:25.891Z,44.32
2018-07-27T19:33:25.910Z,44.30
2018-07-27T19:35:20.276Z,44.30
2018-07-27T19:36:20.303Z,44.30
2018-07-27T19:38:13.851Z,44.30
2018-07-27T19:39:13.870Z,44.20
2018-07-27T19:41:07.421Z,44.32
2018-07-27T19:42:07.483Z,44.32
2018-07-27T19:44:01.046Z,44.23
2018-07-27T19:45:01.012Z,44.13
2018-07-27T19:46:54.557Z,44.20
2018-07-27T19:47:54.585Z,44.23
2018-07-27T19:49:48.131Z,44.23
2018-07-27T19:50:48.152Z,44.30
2018-07-27T19:52:41.699Z,44.23
2018-07-27T19:53:41.722Z,44.23
2018-07-27T19:55:35.280Z,44.32
2018-07-27T19:56:35.294Z,44.32
2018-07-27T19:58:28.848Z,44.42
2018-07-27T19:59:28.864Z,44.40
2018-07-27T20:01:22.408Z,44.42
2018-07-27T20:02:22.479Z,44.32
2018-07-27T20:04:15.979Z,44.32
2018-07-27T20:05:16.003Z,44.32
2018-07-27T20:07:09.587Z,44.42
2018-07-27T20:08:09.576Z,44.20
2018-07-27T20:10:03.123Z,44.32
2018-07-27T20:11:03.144Z,44.20
2018-07-27T20:13:08.416Z,44.32
2018-07-27T20:14:08.389Z,44.42
2018-07-27T20:16:13.607Z,44.32
2018-07-27T20:17:13.634Z,44.42
2018-07-27T20:19:07.186Z,44.42
2018-07-27T20:20:07.202Z,44.42
2018-07-27T20:22:00.751Z,44.52
2018-07-27T20:23:00.771Z,44.30
2018-07-27T20:24:54.324Z,44.42
2018-07-27T20:25:54.348Z,44.42
2018-07-27T20:27:47.893Z,44.42
2018-07-27T20:28:47.916Z,44.42
2018-07-27T20:30:41.460Z,44.03
2018-07-27T20:31:41.484Z,44.42
2018-07-27T20:33:35.031Z,44.03
2018-07-27T20:34:35.055Z,44.03
2018-07-27T20:36:28.615Z,44.62
2018-07-27T20:37:28.656Z,44.32
2018-07-27T20:39:22.171Z,44.03
2018-07-27T20:40:22.197Z,44.03
2018-07-27T20:42:15.756Z,44.03
2018-07-27T20:43:15.777Z,44.62
2018-07-27T20:45:09.311Z,44.13
2018-07-27T20:46:09.335Z,44.62
2018-07-27T20:48:02.886Z,44.62
2018-07-27T20:49:02.908Z,44.13
2018-07-27T20:50:56.393Z,44.03
2018-07-27T20:51:56.418Z,44.03
2018-07-27T20:53:49.912Z,44.13
2018-07-27T20:54:49.930Z,44.49
2018-07-27T20:56:43.417Z,44.32
2018-07-27T20:57:43.446Z,44.62
2018-07-27T20:59:36.938Z,44.52
2018-07-27T21:00:36.954Z,44.23
2018-07-27T21:02:30.430Z,44.62
2018-07-27T21:03:30.453Z,44.23
2018-07-27T21:05:23.939Z,44.52
2018-07-27T21:06:23.967Z,44.13
2018-07-27T21:08:17.439Z,44.13
2018-07-27T21:09:17.466Z,44.42
2018-07-27T21:11:10.949Z,44.13
2018-07-27T21:12:10.967Z,44.13
2018-07-27T21:14:04.457Z,44.23
2018-07-27T21:15:04.481Z,44.32
2018-07-27T21:16:57.975Z,44.23
2018-07-27T21:17:58.000Z,44.23
2018-07-27T21:19:51.481Z,44.32
2018-07-27T21:20:51.505Z,44.42
2018-07-27T21:22:44.990Z,44.32
2018-07-27T21:23:45.018Z,44.23
2018-07-27T21:25:50.185Z,44.23
2018-07-27T21:26:50.207Z,44.13
2018-07-27T21:28:43.695Z,44.23
2018-07-27T21:29:43.704Z,44.32
2018-07-27T21:31:37.202Z,44.23
2018-07-27T21:32:37.227Z,44.23
2018-07-27T21:34:30.720Z,44.23
2018-07-27T21:35:30.737Z,44.23
2018-07-27T21:37:24.225Z,44.32
2018-07-27T21:38:24.254Z,44.32
2018-07-27T21:40:17.744Z,44.42
2018-07-27T21:41:17.766Z,44.42
2018-07-27T21:43:11.251Z,44.32